Time;durP1;ratioP1;P1;durP2;ratioP2;P2;SDS_P1;SDS_P2;PMS_P1;PMS_P2;Temp;Humidity;BMP_temperature;BMP_pressure;BME280_temperature;BME280_humidity;BME280_pressure;Samples;Min_cycle;Max_cycle;Signal;HPM_P1;HPM_P2
2022/06/17 00:01:27;;;;;;;3.42;1.65;;;;;;;;;;5074151;28;20029;-52
2022/06/17 00:03:52;;;;;;;5.53;1.52;;;;;;;;;;5073849;28;20425;-53
2022/06/17 00:06:20;;;;;;;3.55;1.70;;;;;;;;;;5073804;28;20087;-53
2022/06/17 00:08:49;;;;;;;2.65;2.00;;;;;;;;;;5073735;28;20016;-50
2022/06/17 00:11:26;;;;;;;2.40;1.30;;;;;;;;;;5074276;28;20028;-50
2022/06/17 00:13:52;;;;;;;4.47;1.40;;;;;;;;;;5073704;28;20400;-52
2022/06/17 00:16:19;;;;;;;1.77;1.45;;;;;;;;;;5073598;28;20028;-51
2022/06/17 00:18:45;;;;;;;2.92;1.27;;;;;;;;;;5073379;28;20480;-53
2022/06/17 00:21:23;;;;;;;1.70;1.10;;;;;;;;;;5073691;28;20074;-50
2022/06/17 00:23:49;;;;;;;2.53;1.10;;;;;;;;;;5072580;28;20044;-54
2022/06/17 00:26:15;;;;;;;2.88;1.33;;;;;;;;;;5073379;28;20090;-52
2022/06/17 00:28:41;;;;;;;4.05;1.52;;;;;;;;;;5073278;28;20026;-52
2022/06/17 00:31:06;;;;;;;2.88;1.15;;;;;;;;;;5073483;28;20043;-53
2022/06/17 00:33:32;;;;;;;1.48;1.38;;;;;;;;;;5073267;28;20032;-53
2022/06/17 00:35:57;;;;;;;5.57;1.40;;;;;;;;;;5073721;28;20024;-53
2022/06/17 00:38:32;;;;;;;1.30;1.10;;;;;;;;;;5073468;28;20020;-53
2022/06/17 00:41:10;;;;;;;5.57;1.52;;;;;;;;;;5073184;28;20040;-54
2022/06/17 00:43:37;;;;;;;1.63;1.23;;;;;;;;;;5073069;28;20036;-53
2022/06/17 00:46:24;;;;;;;1.27;1.17;;;;;;;;;;5073289;28;20419;-54
2022/06/17 00:49:15;;;;;;;1.33;1.25;;;;;;;;;;5073024;28;20450;-51
2022/06/17 00:51:48;;;;;;;3.47;1.42;;;;;;;;;;5072802;28;20079;-54
2022/06/17 00:54:21;;;;;;;2.88;1.20;;;;;;;;;;5073170;28;20048;-52
2022/06/17 00:56:47;;;;;;;3.15;1.25;;;;;;;;;;5072739;28;20033;-54
2022/06/17 00:59:14;;;;;;;3.08;2.13;;;;;;;;;;5055101;28;20028;-52
2022/06/17 01:01:46;;;;;;;1.45;1.23;;;;;;;;;;5072691;28;20020;-53
2022/06/17 01:04:14;;;;;;;5.88;2.92;;;;;;;;;;5072689;28;20461;-53
2022/06/17 01:06:46;;;;;;;1.50;1.40;;;;;;;;;;5072976;28;20024;-54
2022/06/17 01:12:08;;;;;;;2.65;1.30;;;;;;;;;;5072703;28;20491;-53
2022/06/17 01:14:34;;;;;;;1.77;1.38;;;;;;;;;;5072879;28;20029;-52
2022/06/17 01:17:01;;;;;;;2.13;1.40;;;;;;;;;;5072836;28;20384;-53
2022/06/17 01:19:45;;;;;;;2.80;1.50;;;;;;;;;;5072637;28;20033;-54
2022/06/17 01:22:13;;;;;;;2.47;1.50;;;;;;;;;;5072459;28;20020;-54
2022/06/17 01:24:39;;;;;;;2.28;1.35;;;;;;;;;;5072266;28;20044;-53
2022/06/17 01:27:05;;;;;;;3.25;1.67;;;;;;;;;;5054477;28;20062;-53
2022/06/17 01:29:33;;;;;;;1.95;1.50;;;;;;;;;;5072661;28;20381;-61
2022/06/17 01:31:59;;;;;;;2.40;1.63;;;;;;;;;;5072393;28;20142;-51
2022/06/17 01:34:24;;;;;;;2.53;1.50;;;;;;;;;;5072512;28;20021;-50
2022/06/17 01:36:51;;;;;;;1.40;1.30;;;;;;;;;;5072524;28;20461;-49
2022/06/17 01:39:17;;;;;;;2.55;1.50;;;;;;;;;;5072109;28;20132;-49
2022/06/17 01:41:46;;;;;;;1.63;1.50;;;;;;;;;;5072281;28;20060;-52
2022/06/17 01:44:15;;;;;;;2.47;1.70;;;;;;;;;;5072592;28;20032;-52
2022/06/17 01:46:44;;;;;;;2.25;1.60;;;;;;;;;;5072503;28;20087;-54
2022/06/17 01:49:18;;;;;;;1.40;1.30;;;;;;;;;;5072432;28;20020;-52
2022/06/17 01:51:50;;;;;;;2.08;1.60;;;;;;;;;;5072241;28;20028;-52
2022/06/17 01:54:21;;;;;;;1.90;1.73;;;;;;;;;;5072110;28;20115;-52
2022/06/17 01:56:50;;;;;;;4.43;1.60;;;;;;;;;;5072570;28;20020;-53
2022/06/17 01:59:26;;;;;;;5.05;1.65;;;;;;;;;;5072342;28;20020;-49
2022/06/17 02:01:57;;;;;;;2.40;1.67;;;;;;;;;;5072156;28;20032;-48
2022/06/17 02:04:38;;;;;;;3.03;1.75;;;;;;;;;;5072365;28;20029;-51
2022/06/17 02:07:28;;;;;;;2.17;1.63;;;;;;;;;;5072373;28;20029;-49
2022/06/17 02:09:53;;;;;;;2.47;1.65;;;;;;;;;;5072019;28;20021;-53
2022/06/17 02:12:20;;;;;;;3.85;1.90;;;;;;;;;;5072084;28;20039;-54
2022/06/17 02:14:47;;;;;;;3.75;1.83;;;;;;;;;;5072202;28;20020;-54
2022/06/17 02:17:12;;;;;;;2.65;1.85;;;;;;;;;;5072222;28;20422;-53
2022/06/17 02:19:41;;;;;;;4.93;2.13;;;;;;;;;;5072171;28;20036;-54
2022/06/17 02:22:16;;;;;;;1.95;1.85;;;;;;;;;;5072115;28;20081;-54
2022/06/17 02:24:43;;;;;;;6.63;2.20;;;;;;;;;;5071767;28;20037;-54
2022/06/17 02:27:11;;;;;;;3.22;2.10;;;;;;;;;;5072105;28;20267;-54
2022/06/17 02:29:39;;;;;;;4.00;2.30;;;;;;;;;;5072111;28;20033;-55
2022/06/17 02:32:07;;;;;;;3.33;2.70;;;;;;;;;;5071814;28;20028;-55
2022/06/17 02:34:33;;;;;;;4.50;2.33;;;;;;;;;;5071718;28;20025;-55
2022/06/17 02:37:18;;;;;;;5.18;2.92;;;;;;;;;;5071723;28;20035;-55
2022/06/17 02:39:48;;;;;;;5.22;2.60;;;;;;;;;;5071968;28;20055;-53
2022/06/17 02:42:22;;;;;;;5.75;3.00;;;;;;;;;;5071687;28;20034;-54
2022/06/17 02:44:51;;;;;;;5.28;2.95;;;;;;;;;;5071984;28;20025;-54
2022/06/17 02:47:17;;;;;;;3.45;2.70;;;;;;;;;;5072852;28;20067;-55
2022/06/17 02:49:44;;;;;;;5.93;3.15;;;;;;;;;;5075158;28;20060;-55
2022/06/17 02:52:18;;;;;;;5.32;2.92;;;;;;;;;;5075462;28;20055;-53
2022/06/17 02:54:49;;;;;;;7.40;2.92;;;;;;;;;;5075038;28;20111;-55
2022/06/17 02:57:28;;;;;;;4.72;2.95;;;;;;;;;;5075334;28;20032;-54
2022/06/17 03:00:01;;;;;;;5.88;3.47;;;;;;;;;;5074872;28;20541;-54
2022/06/17 03:02:31;;;;;;;4.10;3.22;;;;;;;;;;5074962;28;20029;-56
2022/06/17 03:04:58;;;;;;;4.85;3.42;;;;;;;;;;5075222;28;20044;-55
2022/06/17 03:07:28;;;;;;;7.05;3.10;;;;;;;;;;5074934;28;20032;-54
2022/06/17 03:09:53;;;;;;;8.15;3.47;;;;;;;;;;5075164;28;20024;-49
2022/06/17 03:12:25;;;;;;;4.72;3.00;;;;;;;;;;5075097;28;20484;-48
2022/06/17 03:15:08;;;;;;;5.93;2.90;;;;;;;;;;5075038;28;20081;-48
2022/06/17 03:17:38;;;;;;;3.78;2.83;;;;;;;;;;5075012;28;20024;-48
2022/06/17 03:20:07;;;;;;;4.22;2.80;;;;;;;;;;5074574;28;20473;-47
2022/06/17 03:22:35;;;;;;;5.40;2.85;;;;;;;;;;5074336;28;20452;-48
2022/06/17 03:25:13;;;;;;;6.95;2.88;;;;;;;;;;5074551;28;20028;-48
2022/06/17 03:27:48;;;;;;;4.30;2.70;;;;;;;;;;5075111;28;20078;-48
2022/06/17 03:30:20;;;;;;;5.63;2.97;;;;;;;;;;5074514;28;20028;-47
2022/06/17 03:32:52;;;;;;;5.38;2.83;;;;;;;;;;5074380;28;20020;-48
2022/06/17 03:35:22;;;;;;;3.38;2.63;;;;;;;;;;5074412;28;20063;-48
2022/06/17 03:37:59;;;;;;;4.65;2.60;;;;;;;;;;5074661;28;20029;-49
2022/06/17 03:40:33;;;;;;;5.30;2.47;;;;;;;;;;5074259;28;20058;-48
2022/06/17 03:43:08;;;;;;;5.72;2.70;;;;;;;;;;5074561;28;20090;-48
2022/06/17 03:45:48;;;;;;;15.45;3.42;;;;;;;;;;5074445;28;20028;-48
2022/06/17 03:48:23;;;;;;;7.70;2.75;;;;;;;;;;5074483;28;20020;-48
2022/06/17 03:50:49;;;;;;;3.70;2.75;;;;;;;;;;5074087;28;20035;-49
2022/06/17 03:53:27;;;;;;;6.70;3.25;;;;;;;;;;5074225;28;20029;-49
2022/06/17 03:55:56;;;;;;;5.35;2.50;;;;;;;;;;5073909;28;20036;-50
2022/06/17 03:58:23;;;;;;;12.85;5.25;;;;;;;;;;5073192;28;20024;-49
2022/06/17 04:00:51;;;;;;;3.97;2.85;;;;;;;;;;5073682;28;20036;-51
2022/06/17 04:03:21;;;;;;;5.40;2.58;;;;;;;;;;5074053;28;20029;-48
2022/06/17 04:05:52;;;;;;;4.85;2.45;;;;;;;;;;5074034;28;20067;-51
2022/06/17 04:08:18;;;;;;;2.60;2.33;;;;;;;;;;5073641;28;20033;-49
2022/06/17 04:10:43;;;;;;;3.45;2.35;;;;;;;;;;5073582;28;20020;-48
2022/06/17 04:13:15;;;;;;;2.95;2.20;;;;;;;;;;5073581;28;20131;-53
2022/06/17 04:16:08;;;;;;;2.90;2.05;;;;;;;;;;5073525;28;20020;-48
2022/06/17 04:18:35;;;;;;;3.50;2.35;;;;;;;;;;5073844;28;20035;-49
2022/06/17 04:21:03;;;;;;;3.90;2.63;;;;;;;;;;5073415;28;20056;-49
2022/06/17 04:23:33;;;;;;;3.63;2.40;;;;;;;;;;5073142;28;20103;-51
2022/06/17 04:26:01;;;;;;;4.88;2.90;;;;;;;;;;5056072;28;20032;-51
2022/06/17 04:28:41;;;;;;;6.18;2.38;;;;;;;;;;5073475;28;20016;-52
2022/06/17 04:31:14;;;;;;;5.95;2.78;;;;;;;;;;5073324;28;20036;-48
2022/06/17 04:33:51;;;;;;;8.60;2.90;;;;;;;;;;5073486;28;20025;-51
2022/06/17 04:36:35;;;;;;;7.15;3.70;;;;;;;;;;5073477;28;20278;-52
2022/06/17 04:39:18;;;;;;;3.17;2.45;;;;;;;;;;5073293;28;20043;-50
2022/06/17 04:41:44;;;;;;;2.65;2.20;;;;;;;;;;5073323;28;20078;-50
2022/06/17 04:44:13;;;;;;;6.70;2.53;;;;;;;;;;5073342;28;20103;-50
2022/06/17 04:46:44;;;;;;;5.50;2.80;;;;;;;;;;5073209;28;20021;-50
2022/06/17 04:49:20;;;;;;;4.70;2.85;;;;;;;;;;5054902;28;20036;-51
2022/06/17 04:51:47;;;;;;;4.00;2.55;;;;;;;;;;5073325;28;20028;-52
2022/06/17 04:54:14;;;;;;;3.10;2.30;;;;;;;;;;5072706;28;20503;-51
2022/06/17 04:56:43;;;;;;;3.17;2.30;;;;;;;;;;5072813;28;20488;-52
2022/06/17 04:59:29;;;;;;;5.57;2.80;;;;;;;;;;5072954;28;20025;-50
2022/06/17 05:01:55;;;;;;;7.68;3.25;;;;;;;;;;5072768;28;20060;-53
2022/06/17 05:04:22;;;;;;;3.33;2.58;;;;;;;;;;5072623;28;20024;-48
2022/06/17 05:06:47;;;;;;;4.03;2.08;;;;;;;;;;5072964;28;20028;-52
2022/06/17 05:09:13;;;;;;;3.85;2.67;;;;;;;;;;5072774;28;20036;-51
2022/06/17 05:11:43;;;;;;;6.93;2.90;;;;;;;;;;5072412;28;20465;-52
2022/06/17 05:14:28;;;;;;;4.32;2.92;;;;;;;;;;5072901;28;20077;-52
2022/06/17 05:16:54;;;;;;;7.57;3.95;;;;;;;;;;5072664;28;20047;-52
2022/06/17 05:19:21;;;;;;;5.63;3.70;;;;;;;;;;5072476;28;20062;-51
2022/06/17 05:21:46;;;;;;;4.03;2.90;;;;;;;;;;5072436;28;20123;-51
2022/06/17 05:24:12;;;;;;;5.75;4.00;;;;;;;;;;5072254;28;20078;-53
2022/06/17 05:26:37;;;;;;;6.57;3.85;;;;;;;;;;5072353;28;20054;-49
2022/06/17 05:29:03;;;;;;;6.10;3.65;;;;;;;;;;5072693;28;20066;-48
2022/06/17 05:31:29;;;;;;;8.68;3.58;;;;;;;;;;5072492;28;20372;-53
2022/06/17 05:33:54;;;;;;;6.53;3.63;;;;;;;;;;5072570;28;20487;-53
2022/06/17 05:36:20;;;;;;;5.57;4.55;;;;;;;;;;5072333;28;20025;-52
2022/06/17 05:38:45;;;;;;;6.30;3.60;;;;;;;;;;5070878;28;20028;-50
2022/06/17 05:41:20;;;;;;;5.90;3.42;;;;;;;;;;5053600;28;20543;-51
2022/06/17 05:43:46;;;;;;;9.80;3.42;;;;;;;;;;5071097;28;20024;-52
2022/06/17 05:46:11;;;;;;;6.05;2.90;;;;;;;;;;5070338;28;20499;-52
2022/06/17 05:48:37;;;;;;;5.80;3.55;;;;;;;;;;5070303;28;20028;-52
2022/06/17 05:51:03;;;;;;;7.57;3.40;;;;;;;;;;5071151;28;20028;-52
2022/06/17 05:53:28;;;;;;;5.38;3.45;;;;;;;;;;5071099;28;20021;-52
2022/06/17 05:55:54;;;;;;;7.80;3.60;;;;;;;;;;5071650;28;20054;-52
2022/06/17 05:58:20;;;;;;;5.57;3.53;;;;;;;;;;5072160;28;20062;-52
2022/06/17 06:00:46;;;;;;;7.38;3.65;;;;;;;;;;5072308;28;20475;-51
2022/06/17 06:03:23;;;;;;;4.57;3.33;;;;;;;;;;5072115;28;20033;-50
2022/06/17 06:05:49;;;;;;;9.73;4.10;;;;;;;;;;5070524;28;20040;-52
2022/06/17 06:08:15;;;;;;;8.40;3.75;;;;;;;;;;5070126;28;20033;-53
2022/06/17 06:10:41;;;;;;;12.20;6.00;;;;;;;;;;5071918;28;20031;-52
2022/06/17 06:13:06;;;;;;;6.60;2.95;;;;;;;;;;5071598;28;20034;-50
2022/06/17 06:15:41;;;;;;;5.47;3.33;;;;;;;;;;5071748;28;20020;-52
2022/06/17 06:18:13;;;;;;;11.32;4.97;;;;;;;;;;5071254;28;20369;-52
2022/06/17 06:20:39;;;;;;;6.28;4.00;;;;;;;;;;5071753;28;20044;-51
2022/06/17 06:23:04;;;;;;;7.18;4.63;;;;;;;;;;5074444;28;20090;-48
2022/06/17 06:25:31;;;;;;;6.93;4.32;;;;;;;;;;5075609;28;20043;-53
2022/06/17 06:27:57;;;;;;;9.63;6.15;;;;;;;;;;5075942;28;20031;-50
2022/06/17 06:30:24;;;;;;;9.50;5.57;;;;;;;;;;5075541;28;20028;-53
2022/06/17 06:33:03;;;;;;;7.80;5.70;;;;;;;;;;5075487;28;20024;-53
2022/06/17 06:35:35;;;;;;;11.32;6.30;;;;;;;;;;5075413;28;20025;-53
2022/06/17 06:38:02;;;;;;;13.52;6.65;;;;;;;;;;5075727;28;20073;-53
2022/06/17 06:40:28;;;;;;;11.43;7.10;;;;;;;;;;5075503;28;20056;-52
2022/06/17 06:42:54;;;;;;;13.80;6.72;;;;;;;;;;5075482;28;20471;-52
2022/06/17 06:45:26;;;;;;;15.23;7.03;;;;;;;;;;5075385;28;20074;-50
2022/06/17 06:47:54;;;;;;;13.50;7.85;;;;;;;;;;5075162;28;20025;-53
2022/06/17 06:50:23;;;;;;;11.93;6.82;;;;;;;;;;5075483;28;20094;-53
2022/06/17 06:52:48;;;;;;;13.20;6.30;;;;;;;;;;5075172;28;20025;-48
2022/06/17 06:55:15;;;;;;;11.68;6.95;;;;;;;;;;5075059;28;20032;-50
2022/06/17 06:57:52;;;;;;;9.55;5.50;;;;;;;;;;5070971;28;20078;-53
2022/06/17 07:00:25;;;;;;;11.48;5.00;;;;;;;;;;5071952;28;20135;-53
2022/06/17 07:02:50;;;;;;;8.00;4.40;;;;;;;;;;5073841;28;20603;-51
2022/06/17 07:05:16;;;;;;;9.75;4.80;;;;;;;;;;5073398;28;20107;-53
2022/06/17 07:07:42;;;;;;;13.88;5.20;;;;;;;;;;5073485;28;20025;-53
2022/06/17 07:10:12;;;;;;;14.73;5.95;;;;;;;;;;5073623;28;20103;-56
2022/06/17 07:12:38;;;;;;;10.70;5.75;;;;;;;;;;5073278;28;20078;-56
2022/06/17 07:15:04;;;;;;;12.57;5.63;;;;;;;;;;5073358;28;20032;-56
2022/06/17 07:17:30;;;;;;;9.82;5.65;;;;;;;;;;5073303;28;20030;-57
2022/06/17 07:19:55;;;;;;;11.30;5.72;;;;;;;;;;5074756;28;20024;-57
2022/06/17 07:22:22;;;;;;;15.05;6.40;;;;;;;;;;5073423;28;20055;-55
2022/06/17 07:24:48;;;;;;;10.82;5.88;;;;;;;;;;5073249;28;20078;-54
2022/06/17 07:27:13;;;;;;;7.82;5.65;;;;;;;;;;5072879;28;20480;-55
2022/06/17 07:29:39;;;;;;;10.18;6.07;;;;;;;;;;5073079;28;20029;-57
2022/06/17 07:32:04;;;;;;;10.65;6.25;;;;;;;;;;5073044;28;20108;-55
2022/06/17 07:34:30;;;;;;;9.18;5.80;;;;;;;;;;5072792;28;20032;-57
2022/06/17 07:39:54;;;;;;;10.70;6.20;;;;;;;;;;5072955;28;20040;-57
2022/06/17 07:42:25;;;;;;;12.07;5.93;;;;;;;;;;5072789;28;20479;-56
2022/06/17 07:44:51;;;;;;;8.25;5.22;;;;;;;;;;5072794;28;20025;-57
2022/06/17 07:47:20;;;;;;;10.68;3.90;;;;;;;;;;5072397;28;20020;-56
2022/06/17 07:49:46;;;;;;;6.85;4.20;;;;;;;;;;5073002;28;20029;-55
2022/06/17 07:52:11;;;;;;;8.32;3.85;;;;;;;;;;5072581;28;20387;-57
2022/06/17 07:54:37;;;;;;;17.00;2.72;;;;;;;;;;5072267;28;20032;-56
2022/06/17 07:57:03;;;;;;;12.73;3.90;;;;;;;;;;5072679;28;20028;-58
2022/06/17 07:59:29;;;;;;;7.07;3.35;;;;;;;;;;5072636;28;20024;-61
2022/06/17 08:01:54;;;;;;;4.78;2.20;;;;;;;;;;5072531;28;20024;-57
2022/06/17 08:04:20;;;;;;;6.20;2.22;;;;;;;;;;5072560;28;20039;-58
2022/06/17 08:06:51;;;;;;;6.32;1.80;;;;;;;;;;5072216;28;20024;-55
2022/06/17 08:09:19;;;;;;;6.72;2.25;;;;;;;;;;5072044;28;20040;-57
2022/06/17 08:11:45;;;;;;;4.03;1.70;;;;;;;;;;5072248;28;20029;-56
2022/06/17 08:14:11;;;;;;;5.22;1.40;;;;;;;;;;5071817;28;20115;-59
2022/06/17 08:16:38;;;;;;;4.05;2.38;;;;;;;;;;5070469;28;20032;-60
2022/06/17 08:19:04;;;;;;;5.35;2.90;;;;;;;;;;5070560;28;20430;-60
2022/06/17 08:21:31;;;;;;;9.15;4.93;;;;;;;;;;5070386;28;20543;-58
2022/06/17 08:23:57;;;;;;;10.43;5.32;;;;;;;;;;5070011;28;20584;-54
2022/06/17 08:26:22;;;;;;;7.30;3.38;;;;;;;;;;5070168;28;20060;-59
2022/06/17 08:28:48;;;;;;;3.60;1.83;;;;;;;;;;5070582;28;20075;-54
2022/06/17 08:31:14;;;;;;;1.73;1.60;;;;;;;;;;5070184;28;20024;-54
2022/06/17 08:33:39;;;;;;;2.10;1.77;;;;;;;;;;5070393;28;20074;-50
2022/06/17 08:36:09;;;;;;;3.00;1.95;;;;;;;;;;5070621;28;20039;-53
2022/06/17 08:38:38;;;;;;;9.90;4.03;;;;;;;;;;5069747;28;20033;-58
2022/06/17 08:41:25;;;;;;;3.60;2.40;;;;;;;;;;5070433;28;20031;-59
2022/06/17 08:44:06;;;;;;;6.97;3.58;;;;;;;;;;5070275;28;20052;-58
2022/06/17 08:46:46;;;;;;;5.60;2.10;;;;;;;;;;5069640;28;20149;-58
2022/06/17 08:49:29;;;;;;;5.32;2.38;;;;;;;;;;5070201;28;20028;-57
2022/06/17 08:52:32;;;;;;;5.68;2.42;;;;;;;;;;5070076;28;20032;-53
2022/06/17 08:55:15;;;;;;;5.03;3.13;;;;;;;;;;5065759;28;20325;-54
2022/06/17 08:57:54;;;;;;;3.55;2.10;;;;;;;;;;5069962;28;20028;-56
2022/06/17 09:00:27;;;;;;;6.85;2.97;;;;;;;;;;5069577;28;20028;-54
2022/06/17 09:03:17;;;;;;;5.88;2.22;;;;;;;;;;5069851;28;20032;-53
2022/06/17 09:05:47;;;;;;;4.15;1.83;;;;;;;;;;5069547;28;20029;-57
2022/06/17 09:08:24;;;;;;;7.93;4.35;;;;;;;;;;5069890;28;20115;-58
2022/06/17 09:10:57;;;;;;;4.55;1.60;;;;;;;;;;5069547;28;20493;-58
2022/06/17 09:13:35;;;;;;;4.40;2.65;;;;;;;;;;5069685;28;20536;-50
2022/06/17 09:16:10;;;;;;;10.45;5.35;;;;;;;;;;5069823;28;20054;-54
2022/06/17 09:18:42;;;;;;;4.60;2.72;;;;;;;;;;5069386;28;20024;-53
2022/06/17 09:21:14;;;;;;;1.10;1.10;;;;;;;;;;5069634;28;20043;-54
2022/06/17 09:23:40;;;;;;;1.45;1.35;;;;;;;;;;5069418;28;20182;-58
2022/06/17 09:26:31;;;;;;;2.53;1.25;;;;;;;;;;5069274;28;20103;-57
2022/06/17 09:29:37;;;;;;;2.58;1.38;;;;;;;;;;5057133;28;20047;-57
2022/06/17 09:32:08;;;;;;;6.35;2.10;;;;;;;;;;5069567;28;20025;-57
2022/06/17 09:34:34;;;;;;;2.28;1.60;;;;;;;;;;5069700;28;20037;-55
2022/06/17 09:37:16;;;;;;;6.90;2.55;;;;;;;;;;5069024;28;20027;-55
2022/06/17 09:40:06;;;;;;;1.95;1.42;;;;;;;;;;5069595;28;20384;-58
2022/06/17 09:42:46;;;;;;;3.42;1.52;;;;;;;;;;5069084;28;20467;-59
2022/06/17 09:45:16;;;;;;;1.65;1.48;;;;;;;;;;5069328;28;20035;-59
2022/06/17 09:47:49;;;;;;;3.53;2.05;;;;;;;;;;5069139;28;20028;-57
2022/06/17 09:50:19;;;;;;;2.38;1.60;;;;;;;;;;5069065;28;20033;-53
2022/06/17 09:53:02;;;;;;;2.08;1.52;;;;;;;;;;5069182;28;20047;-57
2022/06/17 09:55:37;;;;;;;2.38;1.55;;;;;;;;;;5069240;28;20024;-55
2022/06/17 09:58:08;;;;;;;2.03;1.23;;;;;;;;;;5071560;28;20074;-56
2022/06/17 10:00:43;;;;;;;2.40;1.40;;;;;;;;;;5073501;28;20032;-56
2022/06/17 10:03:15;;;;;;;1.20;1.10;;;;;;;;;;5073233;28;20033;-58
2022/06/17 10:05:48;;;;;;;3.30;2.03;;;;;;;;;;5073305;28;20120;-58
2022/06/17 10:08:43;;;;;;;2.75;1.67;;;;;;;;;;5072992;28;20031;-57
2022/06/17 10:11:51;;;;;;;2.42;1.40;;;;;;;;;;5073205;28;20457;-59
2022/06/17 10:14:22;;;;;;;1.58;1.48;;;;;;;;;;5072714;28;20024;-50
2022/06/17 10:20:25;;;;;;;1.75;1.40;;;;;;;;;;5072876;28;20415;-56
2022/06/17 10:23:35;;;;;;;4.15;1.48;;;;;;;;;;5072985;28;20072;-59
2022/06/17 10:26:16;;;;;;;3.03;1.20;;;;;;;;;;5072670;28;20090;-57
2022/06/17 10:28:51;;;;;;;1.05;1.05;;;;;;;;;;5073344;28;20059;-58
2022/06/17 10:31:39;;;;;;;3.88;1.40;;;;;;;;;;5073728;28;20524;-56
2022/06/17 10:34:15;;;;;;;1.70;1.38;;;;;;;;;;5073968;28;20064;-57
2022/06/17 10:36:43;;;;;;;1.50;1.30;;;;;;;;;;5074214;28;20032;-54
2022/06/17 10:39:10;;;;;;;3.20;1.50;;;;;;;;;;5073852;28;20075;-54
2022/06/17 10:41:37;;;;;;;0.90;0.90;;;;;;;;;;5073758;28;20385;-60
2022/06/17 10:44:03;;;;;;;1.45;1.35;;;;;;;;;;5073670;28;20419;-53
2022/06/17 10:46:36;;;;;;;1.45;1.23;;;;;;;;;;5073697;28;20017;-57
2022/06/17 10:49:26;;;;;;;3.50;1.70;;;;;;;;;;5073495;28;20041;-56
2022/06/17 10:51:54;;;;;;;2.85;1.80;;;;;;;;;;5073560;28;20028;-55
2022/06/17 10:54:29;;;;;;;2.67;1.73;;;;;;;;;;5073802;28;20067;-57
2022/06/17 10:56:55;;;;;;;1.85;1.48;;;;;;;;;;5073627;28;20097;-56
2022/06/17 10:59:34;;;;;;;2.17;1.50;;;;;;;;;;5073130;28;20147;-57
2022/06/17 11:02:00;;;;;;;2.15;1.70;;;;;;;;;;5068809;28;20020;-55
2022/06/17 11:04:28;;;;;;;4.13;2.10;;;;;;;;;;5053372;28;20029;-56
2022/06/17 11:07:13;;;;;;;5.70;2.33;;;;;;;;;;5052946;28;20025;-56
2022/06/17 11:09:45;;;;;;;1.58;1.48;;;;;;;;;;5052812;28;20025;-56
2022/06/17 11:12:22;;;;;;;3.95;2.15;;;;;;;;;;5053349;28;20067;-56
2022/06/17 11:14:52;;;;;;;8.68;4.32;;;;;;;;;;5053163;28;20741;-58
2022/06/17 11:17:39;;;;;;;7.13;2.30;;;;;;;;;;5053285;28;20112;-55
2022/06/17 11:20:28;;;;;;;4.40;3.03;;;;;;;;;;5053094;28;20078;-56
2022/06/17 11:23:07;;;;;;;6.53;3.17;;;;;;;;;;5052953;28;20543;-51
2022/06/17 11:25:33;;;;;;;6.07;2.70;;;;;;;;;;5053129;28;20729;-50
2022/06/17 11:27:58;;;;;;;6.90;1.80;;;;;;;;;;5053041;28;20119;-53
2022/06/17 11:30:31;;;;;;;3.20;2.25;;;;;;;;;;5052966;28;20029;-53
2022/06/17 11:33:00;;;;;;;14.93;2.70;;;;;;;;;;5034985;28;20033;-53
2022/06/17 11:35:34;;;;;;;9.48;3.72;;;;;;;;;;5052671;28;20050;-51
2022/06/17 11:38:03;;;;;;;6.57;2.17;;;;;;;;;;5052634;28;20064;-55
2022/06/17 11:40:35;;;;;;;4.93;2.60;;;;;;;;;;5052911;28;20037;-52
2022/06/17 11:43:05;;;;;;;4.15;2.90;;;;;;;;;;5052699;28;20451;-52
2022/06/17 11:45:41;;;;;;;4.07;2.70;;;;;;;;;;5053426;28;20037;-55
2022/06/17 11:48:19;;;;;;;7.03;1.90;;;;;;;;;;5052524;28;20036;-51
2022/06/17 11:51:06;;;;;;;4.78;3.00;;;;;;;;;;5052852;28;20673;-54
2022/06/17 11:53:41;;;;;;;5.43;2.83;;;;;;;;;;5052464;28;20025;-58
2022/06/17 11:56:08;;;;;;;5.82;2.30;;;;;;;;;;5052434;28;20025;-59
2022/06/17 11:58:34;;;;;;;3.50;1.92;;;;;;;;;;5052532;28;20063;-65
2022/06/17 12:01:12;;;;;;;2.80;1.60;;;;;;;;;;5052312;28;20061;-61
2022/06/17 12:03:43;;;;;;;5.72;2.00;;;;;;;;;;5052496;28;20112;-61
2022/06/17 12:06:27;;;;;;;2.75;2.10;;;;;;;;;;5052301;28;20036;-58
2022/06/17 12:09:03;;;;;;;1.85;1.50;;;;;;;;;;5052289;28;20117;-54
2022/06/17 12:11:46;;;;;;;8.07;1.45;;;;;;;;;;5052321;28;20090;-58
2022/06/17 12:14:43;;;;;;;1.60;1.50;;;;;;;;;;5052059;28;20028;-63
2022/06/17 12:17:14;;;;;;;6.95;2.30;;;;;;;;;;5017709;28;20074;-64
2022/06/17 12:19:39;;;;;;;3.47;2.25;;;;;;;;;;5050680;28;20021;-55
2022/06/17 12:22:34;;;;;;;7.80;2.72;;;;;;;;;;5034036;28;20043;-59
2022/06/17 12:25:09;;;;;;;10.48;4.60;;;;;;;;;;5051828;28;20041;-62
2022/06/17 12:27:43;;;;;;;6.85;3.40;;;;;;;;;;5051558;28;20540;-64
2022/06/17 12:30:19;;;;;;;16.98;4.70;;;;;;;;;;5033794;28;20025;-63
2022/06/17 12:33:17;;;;;;;23.60;5.03;;;;;;;;;;5051512;28;20101;-55
2022/06/17 12:35:47;;;;;;;11.60;3.22;;;;;;;;;;5051389;28;20117;-60
2022/06/17 12:38:22;;;;;;;11.75;3.13;;;;;;;;;;5051406;28;20427;-60
2022/06/17 12:40:54;;;;;;;20.02;2.70;;;;;;;;;;5051462;28;20059;-56
2022/06/17 12:43:43;;;;;;;19.13;3.35;;;;;;;;;;5051448;28;20056;-55
2022/06/17 12:46:16;;;;;;;;;;;;;;;;;;5051859;28;20507;-63
2022/06/17 12:48:49;;;;;;;11.82;2.20;;;;;;;;;;5051188;28;20277;-59
2022/06/17 12:54:24;;;;;;;6.50;1.75;;;;;;;;;;5051391;28;20082;-58
2022/06/17 12:56:49;;;;;;;5.40;2.15;;;;;;;;;;5051315;28;20475;-59
2022/06/17 12:59:36;;;;;;;11.25;3.03;;;;;;;;;;5050816;28;20029;-57
2022/06/17 13:02:07;;;;;;;11.23;3.70;;;;;;;;;;5051463;28;20302;-62
2022/06/17 13:04:51;;;;;;;13.32;4.97;;;;;;;;;;5051353;28;20041;-63
2022/06/17 13:07:41;;;;;;;6.57;3.75;;;;;;;;;;5051143;28;20029;-58
2022/06/17 13:15:17;;;;;;;3.35;2.28;;;;;;;;;;5103911;27;1399362;-64
2022/06/17 13:18:11;;;;;;;4.90;2.10;;;;;;;;;;5129289;27;20682;-57
2022/06/17 13:21:00;;;;;;;3.72;1.48;;;;;;;;;;5128807;28;20088;-66
2022/06/17 13:23:41;;;;;;;5.07;3.08;;;;;;;;;;5129212;27;20486;-66
2022/06/17 13:26:23;;;;;;;6.22;3.45;;;;;;;;;;5129013;27;20035;-58
2022/06/17 13:29:00;;;;;;;11.45;5.07;;;;;;;;;;5129159;27;20034;-61
2022/06/17 13:31:34;;;;;;;8.15;2.90;;;;;;;;;;5128962;27;20073;-68
2022/06/17 13:34:03;;;;;;;5.95;3.30;;;;;;;;;;5128950;27;20039;-62
2022/06/17 13:36:34;;;;;;;7.65;4.45;;;;;;;;;;5128845;27;20030;-67
2022/06/17 13:39:11;;;;;;;3.55;2.40;;;;;;;;;;5129086;27;20035;-59
2022/06/17 13:41:44;;;;;;;9.85;3.78;;;;;;;;;;5129095;27;20080;-66
2022/06/17 13:44:13;;;;;;;4.07;2.67;;;;;;;;;;5128855;27;20016;-66
2022/06/17 13:47:00;;;;;;;5.47;2.75;;;;;;;;;;5128687;28;20617;-66
2022/06/17 13:50:09;;;;;;;6.35;2.50;;;;;;;;;;5128551;27;20039;-67
2022/06/17 13:52:52;;;;;;;6.85;2.30;;;;;;;;;;5064810;28;20161;-67
2022/06/17 13:55:41;;;;;;;6.15;2.97;;;;;;;;;;5122912;27;20513;-66
2022/06/17 13:58:21;;;;;;;11.10;4.20;;;;;;;;;;5128376;27;20024;-64
2022/06/17 14:00:54;;;;;;;8.93;4.00;;;;;;;;;;5128517;27;20085;-62
2022/06/17 14:03:22;;;;;;;9.18;3.00;;;;;;;;;;5128568;27;20382;-62
2022/06/17 14:05:57;;;;;;;7.05;2.50;;;;;;;;;;5128343;27;20031;-67
2022/06/17 14:09:03;;;;;;;4.82;2.28;;;;;;;;;;5127956;27;20078;-58
2022/06/17 14:11:41;;;;;;;4.35;2.30;;;;;;;;;;5128214;27;20065;-64
2022/06/17 14:14:19;;;;;;;4.40;3.40;;;;;;;;;;5127864;27;20081;-60
2022/06/17 14:17:03;;;;;;;5.25;2.53;;;;;;;;;;5128464;27;20031;-61
2022/06/17 14:19:53;;;;;;;7.30;3.85;;;;;;;;;;5127881;27;20034;-65
2022/06/17 14:22:38;;;;;;;9.82;4.82;;;;;;;;;;5128508;27;20035;-65
2022/06/17 14:25:10;;;;;;;13.38;3.70;;;;;;;;;;5122523;27;20080;-61
2022/06/17 14:27:35;;;;;;;11.48;4.07;;;;;;;;;;5114561;28;20039;-62
2022/06/17 14:30:16;;;;;;;4.90;3.17;;;;;;;;;;5114289;28;20448;-65
2022/06/17 14:32:47;;;;;;;5.05;2.30;;;;;;;;;;5114105;28;20507;-66
2022/06/17 14:35:28;;;;;;;7.10;2.80;;;;;;;;;;5114293;28;20112;-65
2022/06/17 14:38:24;;;;;;;10.00;2.83;;;;;;;;;;5114297;28;20031;-65
2022/06/17 14:43:49;;;;;;;4.70;2.60;;;;;;;;;;5114070;28;20072;-64
2022/06/17 14:46:14;;;;;;;4.57;2.72;;;;;;;;;;5114123;28;20032;-65
2022/06/17 14:48:45;;;;;;;3.60;2.72;;;;;;;;;;5114008;28;20027;-64
2022/06/17 14:51:31;;;;;;;15.63;4.45;;;;;;;;;;5113848;28;20028;-64
2022/06/17 14:53:58;;;;;;;11.73;4.28;;;;;;;;;;5113704;28;20035;-65
2022/06/17 14:56:57;;;;;;;18.35;5.05;;;;;;;;;;5113960;28;20023;-64
2022/06/17 14:59:29;;;;;;;9.07;4.25;;;;;;;;;;5113578;28;20027;-63
2022/06/17 15:01:59;;;;;;;7.72;3.80;;;;;;;;;;5113494;28;20070;-64
2022/06/17 15:04:46;;;;;;;11.05;4.40;;;;;;;;;;5113439;28;20364;-63
2022/06/17 15:07:23;;;;;;;9.45;2.80;;;;;;;;;;5113446;28;20691;-64
2022/06/17 15:09:50;;;;;;;8.73;3.45;;;;;;;;;;5113372;28;20027;-62
2022/06/17 15:12:30;;;;;;;3.90;3.20;;;;;;;;;;5113369;28;20027;-64
2022/06/17 15:15:11;;;;;;;7.10;2.53;;;;;;;;;;5113200;28;20051;-65
2022/06/17 15:17:44;;;;;;;8.70;3.50;;;;;;;;;;5113322;28;20049;-66
2022/06/17 15:20:25;;;;;;;9.75;2.90;;;;;;;;;;5113022;28;20053;-67
2022/06/17 15:23:08;;;;;;;4.28;2.50;;;;;;;;;;5113150;28;20491;-67
2022/06/17 15:25:46;;;;;;;4.38;2.35;;;;;;;;;;5113040;28;20110;-64
2022/06/17 15:28:36;;;;;;;8.98;3.13;;;;;;;;;;5113007;28;20027;-64
2022/06/17 15:31:16;;;;;;;9.90;2.80;;;;;;;;;;5113093;28;20042;-63
2022/06/17 15:33:55;;;;;;;8.75;2.38;;;;;;;;;;5113160;28;20036;-68
2022/06/17 15:36:20;;;;;;;10.88;3.47;;;;;;;;;;5112405;28;20387;-67